sensor_id;sensor_type;location;lat;lon;timestamp;P1;durP1;ratioP1;P2;durP2;ratioP2
62258;SDS011;48241;48.824;10.102;2023-07-29T00:00:55;3.95;;;1.10;;
62258;SDS011;48241;48.824;10.102;2023-07-29T00:03:21;1.30;;;1.20;;
62258;SDS011;48241;48.824;10.102;2023-07-29T00:05:47;2.47;;;1.20;;
62258;SDS011;48241;48.824;10.102;2023-07-29T00:08:13;1.98;;;1.15;;
62258;SDS011;48241;48.824;10.102;2023-07-29T00:10:38;1.33;;;1.00;;
62258;SDS011;48241;48.824;10.102;2023-07-29T00:13:04;2.08;;;1.20;;
62258;SDS011;48241;48.824;10.102;2023-07-29T00:15:30;1.20;;;1.10;;
62258;SDS011;48241;48.824;10.102;2023-07-29T00:17:56;2.03;;;1.00;;
62258;SDS011;48241;48.824;10.102;2023-07-29T00:20:22;1.20;;;0.93;;
62258;SDS011;48241;48.824;10.102;2023-07-29T00:22:47;1.67;;;0.93;;
62258;SDS011;48241;48.824;10.102;2023-07-29T00:25:15;2.88;;;1.08;;
62258;SDS011;48241;48.824;10.102;2023-07-29T00:27:41;1.00;;;0.90;;
62258;SDS011;48241;48.824;10.102;2023-07-29T00:30:07;1.20;;;0.90;;
62258;SDS011;48241;48.824;10.102;2023-07-29T00:32:33;0.82;;;0.82;;
62258;SDS011;48241;48.824;10.102;2023-07-29T00:35:00;1.85;;;0.93;;
62258;SDS011;48241;48.824;10.102;2023-07-29T00:37:26;2.90;;;1.00;;
62258;SDS011;48241;48.824;10.102;2023-07-29T00:39:52;1.23;;;0.75;;
62258;SDS011;48241;48.824;10.102;2023-07-29T00:42:18;3.08;;;0.90;;
62258;SDS011;48241;48.824;10.102;2023-07-29T00:44:43;1.15;;;0.90;;
62258;SDS011;48241;48.824;10.102;2023-07-29T00:47:09;1.70;;;0.80;;
62258;SDS011;48241;48.824;10.102;2023-07-29T00:49:37;1.38;;;1.00;;
62258;SDS011;48241;48.824;10.102;2023-07-29T00:52:03;0.90;;;0.90;;
62258;SDS011;48241;48.824;10.102;2023-07-29T00:54:29;1.58;;;0.80;;
62258;SDS011;48241;48.824;10.102;2023-07-29T00:56:54;0.68;;;0.68;;
62258;SDS011;48241;48.824;10.102;2023-07-29T00:59:20;1.00;;;0.82;;
62258;SDS011;48241;48.824;10.102;2023-07-29T01:01:46;1.15;;;1.05;;
62258;SDS011;48241;48.824;10.102;2023-07-29T01:04:11;1.45;;;1.00;;
62258;SDS011;48241;48.824;10.102;2023-07-29T01:12:15;1.27;;;0.82;;
62258;SDS011;48241;48.824;10.102;2023-07-29T01:17:33;1.23;;;0.90;;
62258;SDS011;48241;48.824;10.102;2023-07-29T01:20:08;1.55;;;0.95;;
62258;SDS011;48241;48.824;10.102;2023-07-29T01:22:38;2.25;;;0.90;;
62258;SDS011;48241;48.824;10.102;2023-07-29T01:25:05;2.45;;;0.90;;
62258;SDS011;48241;48.824;10.102;2023-07-29T01:27:31;2.50;;;0.90;;
62258;SDS011;48241;48.824;10.102;2023-07-29T01:29:57;0.98;;;0.70;;
62258;SDS011;48241;48.824;10.102;2023-07-29T01:32:25;1.70;;;0.85;;
62258;SDS011;48241;48.824;10.102;2023-07-29T01:35:02;1.20;;;1.10;;
62258;SDS011;48241;48.824;10.102;2023-07-29T01:37:33;3.10;;;0.90;;
62258;SDS011;48241;48.824;10.102;2023-07-29T01:40:02;1.83;;;1.00;;
62258;SDS011;48241;48.824;10.102;2023-07-29T01:42:28;0.90;;;0.80;;
62258;SDS011;48241;48.824;10.102;2023-07-29T01:44:55;1.27;;;1.00;;
62258;SDS011;48241;48.824;10.102;2023-07-29T01:47:21;2.28;;;1.00;;
62258;SDS011;48241;48.824;10.102;2023-07-29T01:49:47;2.45;;;0.90;;
62258;SDS011;48241;48.824;10.102;2023-07-29T01:52:13;0.85;;;0.68;;
62258;SDS011;48241;48.824;10.102;2023-07-29T01:54:38;0.70;;;0.60;;
62258;SDS011;48241;48.824;10.102;2023-07-29T01:57:04;1.10;;;0.70;;
62258;SDS011;48241;48.824;10.102;2023-07-29T01:59:30;2.05;;;1.05;;
62258;SDS011;48241;48.824;10.102;2023-07-29T02:01:55;0.82;;;0.80;;
62258;SDS011;48241;48.824;10.102;2023-07-29T02:04:21;5.40;;;0.80;;
62258;SDS011;48241;48.824;10.102;2023-07-29T02:06:47;3.08;;;0.80;;
62258;SDS011;48241;48.824;10.102;2023-07-29T02:09:12;1.75;;;0.93;;
62258;SDS011;48241;48.824;10.102;2023-07-29T02:11:38;1.00;;;0.90;;
62258;SDS011;48241;48.824;10.102;2023-07-29T02:14:03;1.30;;;1.00;;
62258;SDS011;48241;48.824;10.102;2023-07-29T02:16:29;4.10;;;1.10;;
62258;SDS011;48241;48.824;10.102;2023-07-29T02:18:54;2.05;;;0.98;;
62258;SDS011;48241;48.824;10.102;2023-07-29T02:21:20;1.20;;;1.10;;
62258;SDS011;48241;48.824;10.102;2023-07-29T02:23:45;3.72;;;1.17;;
62258;SDS011;48241;48.824;10.102;2023-07-29T02:26:12;2.58;;;1.05;;
62258;SDS011;48241;48.824;10.102;2023-07-29T02:28:37;1.38;;;0.75;;
62258;SDS011;48241;48.824;10.102;2023-07-29T02:31:13;3.35;;;1.02;;
62258;SDS011;48241;48.824;10.102;2023-07-29T02:33:43;2.40;;;1.00;;
62258;SDS011;48241;48.824;10.102;2023-07-29T02:36:08;2.92;;;1.10;;
62258;SDS011;48241;48.824;10.102;2023-07-29T02:38:34;2.00;;;0.90;;
62258;SDS011;48241;48.824;10.102;2023-07-29T02:41:00;5.18;;;1.10;;
62258;SDS011;48241;48.824;10.102;2023-07-29T02:43:25;2.38;;;1.38;;
62258;SDS011;48241;48.824;10.102;2023-07-29T02:45:51;2.67;;;1.20;;
62258;SDS011;48241;48.824;10.102;2023-07-29T02:48:16;2.38;;;1.20;;
62258;SDS011;48241;48.824;10.102;2023-07-29T02:50:42;2.03;;;1.30;;
62258;SDS011;48241;48.824;10.102;2023-07-29T02:53:08;2.95;;;0.90;;
62258;SDS011;48241;48.824;10.102;2023-07-29T02:55:33;3.30;;;1.40;;
62258;SDS011;48241;48.824;10.102;2023-07-29T02:57:59;2.78;;;1.38;;
62258;SDS011;48241;48.824;10.102;2023-07-29T03:00:24;1.88;;;1.10;;
62258;SDS011;48241;48.824;10.102;2023-07-29T03:02:50;2.95;;;1.40;;
62258;SDS011;48241;48.824;10.102;2023-07-29T03:05:15;1.67;;;1.30;;
62258;SDS011;48241;48.824;10.102;2023-07-29T03:07:41;2.97;;;1.20;;
62258;SDS011;48241;48.824;10.102;2023-07-29T03:10:07;2.05;;;1.35;;
62258;SDS011;48241;48.824;10.102;2023-07-29T03:12:32;1.25;;;1.08;;
62258;SDS011;48241;48.824;10.102;2023-07-29T03:14:58;2.13;;;1.08;;
62258;SDS011;48241;48.824;10.102;2023-07-29T03:17:25;1.35;;;1.20;;
62258;SDS011;48241;48.824;10.102;2023-07-29T03:19:51;2.20;;;1.20;;
62258;SDS011;48241;48.824;10.102;2023-07-29T03:22:17;1.30;;;1.20;;
62258;SDS011;48241;48.824;10.102;2023-07-29T03:24:42;3.28;;;1.25;;
62258;SDS011;48241;48.824;10.102;2023-07-29T03:27:08;1.35;;;1.20;;
62258;SDS011;48241;48.824;10.102;2023-07-29T03:29:34;1.98;;;1.45;;
62258;SDS011;48241;48.824;10.102;2023-07-29T03:32:00;1.40;;;1.30;;
62258;SDS011;48241;48.824;10.102;2023-07-29T03:34:26;3.40;;;1.50;;
62258;SDS011;48241;48.824;10.102;2023-07-29T03:36:51;1.55;;;1.30;;
62258;SDS011;48241;48.824;10.102;2023-07-29T03:39:17;2.45;;;1.33;;
62258;SDS011;48241;48.824;10.102;2023-07-29T03:41:42;2.63;;;1.40;;
62258;SDS011;48241;48.824;10.102;2023-07-29T03:44:08;3.75;;;1.77;;
62258;SDS011;48241;48.824;10.102;2023-07-29T03:46:34;2.88;;;1.50;;
62258;SDS011;48241;48.824;10.102;2023-07-29T03:48:59;2.30;;;1.20;;
62258;SDS011;48241;48.824;10.102;2023-07-29T03:51:25;3.75;;;1.40;;
62258;SDS011;48241;48.824;10.102;2023-07-29T03:53:50;2.78;;;1.60;;
62258;SDS011;48241;48.824;10.102;2023-07-29T03:56:16;1.75;;;1.35;;
62258;SDS011;48241;48.824;10.102;2023-07-29T03:58:42;1.85;;;1.35;;
62258;SDS011;48241;48.824;10.102;2023-07-29T04:01:08;2.55;;;1.42;;
62258;SDS011;48241;48.824;10.102;2023-07-29T04:03:34;3.42;;;1.73;;
62258;SDS011;48241;48.824;10.102;2023-07-29T04:06:00;3.67;;;1.67;;
62258;SDS011;48241;48.824;10.102;2023-07-29T04:08:25;1.50;;;1.40;;
62258;SDS011;48241;48.824;10.102;2023-07-29T04:10:51;2.03;;;1.33;;
62258;SDS011;48241;48.824;10.102;2023-07-29T04:13:17;2.20;;;1.80;;
62258;SDS011;48241;48.824;10.102;2023-07-29T04:15:42;3.78;;;1.40;;
62258;SDS011;48241;48.824;10.102;2023-07-29T04:18:08;2.50;;;1.42;;
62258;SDS011;48241;48.824;10.102;2023-07-29T04:20:33;1.70;;;1.52;;
62258;SDS011;48241;48.824;10.102;2023-07-29T04:22:59;3.75;;;1.50;;
62258;SDS011;48241;48.824;10.102;2023-07-29T04:25:25;1.83;;;1.60;;
62258;SDS011;48241;48.824;10.102;2023-07-29T04:27:50;3.13;;;1.70;;
62258;SDS011;48241;48.824;10.102;2023-07-29T04:30:16;1.40;;;1.30;;
62258;SDS011;48241;48.824;10.102;2023-07-29T04:32:41;2.65;;;1.35;;
62258;SDS011;48241;48.824;10.102;2023-07-29T04:35:07;3.20;;;1.70;;
62258;SDS011;48241;48.824;10.102;2023-07-29T04:37:33;2.72;;;1.80;;
62258;SDS011;48241;48.824;10.102;2023-07-29T04:39:59;2.28;;;1.35;;
62258;SDS011;48241;48.824;10.102;2023-07-29T04:42:24;5.45;;;1.90;;
62258;SDS011;48241;48.824;10.102;2023-07-29T04:44:50;6.78;;;1.80;;
62258;SDS011;48241;48.824;10.102;2023-07-29T04:47:15;2.53;;;2.05;;
62258;SDS011;48241;48.824;10.102;2023-07-29T04:49:41;2.85;;;2.00;;
62258;SDS011;48241;48.824;10.102;2023-07-29T04:52:07;3.72;;;1.95;;
62258;SDS011;48241;48.824;10.102;2023-07-29T04:54:32;2.08;;;1.38;;
62258;SDS011;48241;48.824;10.102;2023-07-29T04:56:58;2.03;;;1.80;;
62258;SDS011;48241;48.824;10.102;2023-07-29T04:59:23;3.65;;;1.75;;
62258;SDS011;48241;48.824;10.102;2023-07-29T05:01:49;2.70;;;1.75;;
62258;SDS011;48241;48.824;10.102;2023-07-29T05:04:14;2.13;;;1.60;;
62258;SDS011;48241;48.824;10.102;2023-07-29T05:06:40;4.47;;;1.55;;
62258;SDS011;48241;48.824;10.102;2023-07-29T05:09:13;2.80;;;1.60;;
62258;SDS011;48241;48.824;10.102;2023-07-29T05:11:39;3.35;;;1.58;;
62258;SDS011;48241;48.824;10.102;2023-07-29T05:14:05;2.15;;;1.50;;
62258;SDS011;48241;48.824;10.102;2023-07-29T05:16:31;1.70;;;1.58;;
62258;SDS011;48241;48.824;10.102;2023-07-29T05:18:57;2.15;;;1.52;;
62258;SDS011;48241;48.824;10.102;2023-07-29T05:21:22;3.00;;;1.63;;
62258;SDS011;48241;48.824;10.102;2023-07-29T05:23:48;2.88;;;1.67;;
62258;SDS011;48241;48.824;10.102;2023-07-29T05:26:13;3.85;;;1.80;;
62258;SDS011;48241;48.824;10.102;2023-07-29T05:28:39;2.88;;;1.50;;
62258;SDS011;48241;48.824;10.102;2023-07-29T05:31:04;3.38;;;1.60;;
62258;SDS011;48241;48.824;10.102;2023-07-29T05:33:30;1.70;;;1.60;;
62258;SDS011;48241;48.824;10.102;2023-07-29T05:35:55;3.95;;;1.60;;
62258;SDS011;48241;48.824;10.102;2023-07-29T05:38:21;3.90;;;1.98;;
62258;SDS011;48241;48.824;10.102;2023-07-29T05:40:47;1.92;;;1.70;;
62258;SDS011;48241;48.824;10.102;2023-07-29T05:43:13;2.83;;;1.60;;
62258;SDS011;48241;48.824;10.102;2023-07-29T05:45:39;3.13;;;1.85;;
62258;SDS011;48241;48.824;10.102;2023-07-29T05:48:05;2.95;;;1.80;;
62258;SDS011;48241;48.824;10.102;2023-07-29T05:50:31;3.33;;;2.00;;
62258;SDS011;48241;48.824;10.102;2023-07-29T05:52:56;3.65;;;2.22;;
62258;SDS011;48241;48.824;10.102;2023-07-29T05:55:22;5.03;;;2.40;;
62258;SDS011;48241;48.824;10.102;2023-07-29T05:57:47;3.67;;;2.10;;
62258;SDS011;48241;48.824;10.102;2023-07-29T06:00:13;5.95;;;2.55;;
62258;SDS011;48241;48.824;10.102;2023-07-29T06:02:39;4.70;;;2.25;;
62258;SDS011;48241;48.824;10.102;2023-07-29T06:05:06;4.97;;;2.50;;
62258;SDS011;48241;48.824;10.102;2023-07-29T06:07:32;3.35;;;2.47;;
62258;SDS011;48241;48.824;10.102;2023-07-29T06:09:58;4.05;;;2.20;;
62258;SDS011;48241;48.824;10.102;2023-07-29T06:12:24;3.80;;;2.50;;
62258;SDS011;48241;48.824;10.102;2023-07-29T06:14:50;3.08;;;2.47;;
62258;SDS011;48241;48.824;10.102;2023-07-29T06:17:16;3.58;;;2.47;;
62258;SDS011;48241;48.824;10.102;2023-07-29T06:19:41;3.75;;;2.08;;
62258;SDS011;48241;48.824;10.102;2023-07-29T06:22:07;5.20;;;2.13;;
62258;SDS011;48241;48.824;10.102;2023-07-29T06:24:32;8.07;;;2.47;;
62258;SDS011;48241;48.824;10.102;2023-07-29T06:26:58;4.07;;;2.50;;
62258;SDS011;48241;48.824;10.102;2023-07-29T06:29:24;3.78;;;2.30;;
62258;SDS011;48241;48.824;10.102;2023-07-29T06:31:49;2.92;;;2.38;;
62258;SDS011;48241;48.824;10.102;2023-07-29T06:34:16;2.70;;;2.05;;
62258;SDS011;48241;48.824;10.102;2023-07-29T06:36:42;3.78;;;2.35;;
62258;SDS011;48241;48.824;10.102;2023-07-29T06:39:08;5.55;;;2.40;;
62258;SDS011;48241;48.824;10.102;2023-07-29T06:41:34;4.18;;;2.20;;
62258;SDS011;48241;48.824;10.102;2023-07-29T06:44:00;3.90;;;2.10;;
62258;SDS011;48241;48.824;10.102;2023-07-29T06:46:25;2.85;;;2.17;;
62258;SDS011;48241;48.824;10.102;2023-07-29T06:48:51;2.50;;;2.30;;
62258;SDS011;48241;48.824;10.102;2023-07-29T06:51:16;3.20;;;2.10;;
62258;SDS011;48241;48.824;10.102;2023-07-29T06:53:42;3.15;;;1.73;;
62258;SDS011;48241;48.824;10.102;2023-07-29T06:56:07;1.83;;;1.73;;
62258;SDS011;48241;48.824;10.102;2023-07-29T06:58:34;3.88;;;2.15;;
62258;SDS011;48241;48.824;10.102;2023-07-29T07:00:59;3.45;;;1.60;;
62258;SDS011;48241;48.824;10.102;2023-07-29T07:03:25;2.78;;;1.40;;
62258;SDS011;48241;48.824;10.102;2023-07-29T07:05:50;2.65;;;1.60;;
62258;SDS011;48241;48.824;10.102;2023-07-29T07:08:16;2.20;;;1.40;;
62258;SDS011;48241;48.824;10.102;2023-07-29T07:10:41;1.75;;;1.48;;
62258;SDS011;48241;48.824;10.102;2023-07-29T07:13:07;2.90;;;1.75;;
62258;SDS011;48241;48.824;10.102;2023-07-29T07:15:32;1.70;;;1.35;;
62258;SDS011;48241;48.824;10.102;2023-07-29T07:17:58;1.52;;;1.42;;
62258;SDS011;48241;48.824;10.102;2023-07-29T07:20:24;2.83;;;1.50;;
62258;SDS011;48241;48.824;10.102;2023-07-29T07:22:49;2.05;;;1.40;;
62258;SDS011;48241;48.824;10.102;2023-07-29T07:25:15;1.65;;;1.55;;
62258;SDS011;48241;48.824;10.102;2023-07-29T07:27:40;1.63;;;1.30;;
62258;SDS011;48241;48.824;10.102;2023-07-29T07:30:06;1.75;;;1.38;;
62258;SDS011;48241;48.824;10.102;2023-07-29T07:32:32;2.40;;;1.38;;
62258;SDS011;48241;48.824;10.102;2023-07-29T07:34:57;3.10;;;1.33;;
62258;SDS011;48241;48.824;10.102;2023-07-29T07:37:23;2.15;;;1.40;;
62258;SDS011;48241;48.824;10.102;2023-07-29T07:39:48;3.85;;;1.90;;
62258;SDS011;48241;48.824;10.102;2023-07-29T07:42:14;2.28;;;1.75;;
62258;SDS011;48241;48.824;10.102;2023-07-29T07:44:40;1.88;;;1.63;;
62258;SDS011;48241;48.824;10.102;2023-07-29T07:47:05;2.78;;;1.95;;
62258;SDS011;48241;48.824;10.102;2023-07-29T07:49:31;3.47;;;1.90;;
62258;SDS011;48241;48.824;10.102;2023-07-29T07:51:56;2.22;;;1.70;;
62258;SDS011;48241;48.824;10.102;2023-07-29T07:54:22;2.53;;;2.13;;
62258;SDS011;48241;48.824;10.102;2023-07-29T07:56:48;3.50;;;2.10;;
62258;SDS011;48241;48.824;10.102;2023-07-29T07:59:13;3.85;;;2.28;;
62258;SDS011;48241;48.824;10.102;2023-07-29T08:01:39;4.45;;;2.25;;
62258;SDS011;48241;48.824;10.102;2023-07-29T08:04:05;5.10;;;2.83;;
62258;SDS011;48241;48.824;10.102;2023-07-29T08:06:31;4.18;;;2.53;;
62258;SDS011;48241;48.824;10.102;2023-07-29T08:08:57;2.92;;;1.90;;
62258;SDS011;48241;48.824;10.102;2023-07-29T08:11:22;2.97;;;2.03;;
62258;SDS011;48241;48.824;10.102;2023-07-29T08:13:48;2.35;;;1.63;;
62258;SDS011;48241;48.824;10.102;2023-07-29T08:16:14;2.88;;;1.30;;
62258;SDS011;48241;48.824;10.102;2023-07-29T08:18:40;3.17;;;1.30;;
62258;SDS011;48241;48.824;10.102;2023-07-29T08:21:05;3.95;;;1.35;;
62258;SDS011;48241;48.824;10.102;2023-07-29T08:23:31;3.30;;;1.70;;
62258;SDS011;48241;48.824;10.102;2023-07-29T08:25:58;2.42;;;1.20;;
62258;SDS011;48241;48.824;10.102;2023-07-29T08:28:30;3.72;;;1.30;;
62258;SDS011;48241;48.824;10.102;2023-07-29T08:31:00;1.88;;;1.00;;
62258;SDS011;48241;48.824;10.102;2023-07-29T08:33:26;1.73;;;1.00;;
62258;SDS011;48241;48.824;10.102;2023-07-29T08:35:52;1.13;;;1.02;;
62258;SDS011;48241;48.824;10.102;2023-07-29T08:38:18;2.33;;;0.80;;
62258;SDS011;48241;48.824;10.102;2023-07-29T08:40:45;2.58;;;0.75;;
62258;SDS011;48241;48.824;10.102;2023-07-29T08:43:18;1.05;;;0.70;;
62258;SDS011;48241;48.824;10.102;2023-07-29T08:45:48;0.60;;;0.50;;
62258;SDS011;48241;48.824;10.102;2023-07-29T08:48:15;1.40;;;0.68;;
62258;SDS011;48241;48.824;10.102;2023-07-29T08:50:48;1.85;;;0.60;;
62258;SDS011;48241;48.824;10.102;2023-07-29T08:53:15;0.98;;;0.77;;
62258;SDS011;48241;48.824;10.102;2023-07-29T08:55:41;0.65;;;0.60;;
62258;SDS011;48241;48.824;10.102;2023-07-29T08:58:07;0.60;;;0.60;;
62258;SDS011;48241;48.824;10.102;2023-07-29T09:00:34;1.13;;;0.50;;
62258;SDS011;48241;48.824;10.102;2023-07-29T09:03:00;1.10;;;0.60;;
62258;SDS011;48241;48.824;10.102;2023-07-29T09:05:31;0.60;;;0.60;;
62258;SDS011;48241;48.824;10.102;2023-07-29T09:07:58;3.08;;;0.50;;
62258;SDS011;48241;48.824;10.102;2023-07-29T09:10:25;0.70;;;0.70;;
62258;SDS011;48241;48.824;10.102;2023-07-29T09:12:51;1.77;;;0.60;;
62258;SDS011;48241;48.824;10.102;2023-07-29T09:15:26;0.95;;;0.60;;
62258;SDS011;48241;48.824;10.102;2023-07-29T09:17:53;0.57;;;0.50;;
62258;SDS011;48241;48.824;10.102;2023-07-29T09:20:23;0.70;;;0.68;;
62258;SDS011;48241;48.824;10.102;2023-07-29T09:22:50;0.70;;;0.70;;
62258;SDS011;48241;48.824;10.102;2023-07-29T09:25:16;1.25;;;0.70;;
62258;SDS011;48241;48.824;10.102;2023-07-29T09:27:49;0.52;;;0.52;;
62258;SDS011;48241;48.824;10.102;2023-07-29T09:30:17;1.33;;;0.77;;
62258;SDS011;48241;48.824;10.102;2023-07-29T09:32:43;1.40;;;0.80;;
62258;SDS011;48241;48.824;10.102;2023-07-29T09:35:12;1.10;;;0.80;;
62258;SDS011;48241;48.824;10.102;2023-07-29T09:37:38;0.93;;;0.80;;
62258;SDS011;48241;48.824;10.102;2023-07-29T09:40:05;1.00;;;0.90;;
62258;SDS011;48241;48.824;10.102;2023-07-29T09:42:31;0.73;;;0.70;;
62258;SDS011;48241;48.824;10.102;2023-07-29T09:44:57;1.33;;;0.80;;
62258;SDS011;48241;48.824;10.102;2023-07-29T09:47:23;0.70;;;0.70;;
62258;SDS011;48241;48.824;10.102;2023-07-29T09:49:50;1.60;;;0.80;;
62258;SDS011;48241;48.824;10.102;2023-07-29T09:52:17;1.15;;;0.60;;
62258;SDS011;48241;48.824;10.102;2023-07-29T09:54:47;1.92;;;0.93;;
62258;SDS011;48241;48.824;10.102;2023-07-29T09:57:13;1.23;;;0.80;;
62258;SDS011;48241;48.824;10.102;2023-07-29T09:59:40;0.90;;;0.63;;
62258;SDS011;48241;48.824;10.102;2023-07-29T10:02:16;0.70;;;0.70;;
62258;SDS011;48241;48.824;10.102;2023-07-29T10:04:42;1.38;;;0.73;;
62258;SDS011;48241;48.824;10.102;2023-07-29T10:07:09;1.00;;;0.80;;
62258;SDS011;48241;48.824;10.102;2023-07-29T10:09:36;0.98;;;0.90;;
62258;SDS011;48241;48.824;10.102;2023-07-29T10:12:03;1.00;;;0.90;;
62258;SDS011;48241;48.824;10.102;2023-07-29T10:14:31;0.93;;;0.90;;
62258;SDS011;48241;48.824;10.102;2023-07-29T10:16:57;0.80;;;0.80;;
62258;SDS011;48241;48.824;10.102;2023-07-29T10:19:24;1.20;;;0.80;;
62258;SDS011;48241;48.824;10.102;2023-07-29T10:21:51;0.90;;;0.80;;
62258;SDS011;48241;48.824;10.102;2023-07-29T10:24:22;1.10;;;0.90;;
62258;SDS011;48241;48.824;10.102;2023-07-29T10:26:54;0.93;;;0.82;;
62258;SDS011;48241;48.824;10.102;2023-07-29T10:29:26;0.83;;;0.83;;
62258;SDS011;48241;48.824;10.102;2023-07-29T10:31:55;1.20;;;0.88;;
62258;SDS011;48241;48.824;10.102;2023-07-29T10:34:22;1.33;;;1.05;;
62258;SDS011;48241;48.824;10.102;2023-07-29T10:36:49;1.33;;;1.00;;
62258;SDS011;48241;48.824;10.102;2023-07-29T10:39:16;1.10;;;1.00;;
62258;SDS011;48241;48.824;10.102;2023-07-29T10:41:54;1.67;;;1.00;;
62258;SDS011;48241;48.824;10.102;2023-07-29T10:47:14;1.83;;;1.20;;
62258;SDS011;48241;48.824;10.102;2023-07-29T10:49:44;1.23;;;1.13;;
62258;SDS011;48241;48.824;10.102;2023-07-29T10:52:14;1.65;;;1.20;;
62258;SDS011;48241;48.824;10.102;2023-07-29T10:54:42;1.67;;;1.00;;
62258;SDS011;48241;48.824;10.102;2023-07-29T10:57:12;2.00;;;1.27;;
62258;SDS011;48241;48.824;10.102;2023-07-29T10:59:39;4.10;;;1.50;;
62258;SDS011;48241;48.824;10.102;2023-07-29T11:02:12;1.55;;;1.45;;
62258;SDS011;48241;48.824;10.102;2023-07-29T11:04:49;1.55;;;1.40;;
62258;SDS011;48241;48.824;10.102;2023-07-29T11:14:59;1.88;;;1.65;;
62258;SDS011;48241;48.824;10.102;2023-07-29T11:20:16;2.38;;;1.70;;
62258;SDS011;48241;48.824;10.102;2023-07-29T11:22:42;0.75;;;0.60;;
62258;SDS011;48241;48.824;10.102;2023-07-29T11:25:09;1.15;;;0.70;;
62258;SDS011;48241;48.824;10.102;2023-07-29T11:27:37;1.77;;;0.60;;
62258;SDS011;48241;48.824;10.102;2023-07-29T11:30:04;2.72;;;0.95;;
62258;SDS011;48241;48.824;10.102;2023-07-29T11:32:31;3.47;;;0.98;;
62258;SDS011;48241;48.824;10.102;2023-07-29T11:35:01;4.10;;;1.08;;
62258;SDS011;48241;48.824;10.102;2023-07-29T11:37:28;3.58;;;1.10;;
62258;SDS011;48241;48.824;10.102;2023-07-29T11:39:54;3.05;;;1.05;;
62258;SDS011;48241;48.824;10.102;2023-07-29T11:42:38;3.10;;;1.02;;
62258;SDS011;48241;48.824;10.102;2023-07-29T11:45:04;1.90;;;0.90;;
62258;SDS011;48241;48.824;10.102;2023-07-29T11:47:33;1.42;;;0.90;;
62258;SDS011;48241;48.824;10.102;2023-07-29T11:50:06;3.50;;;0.80;;
62258;SDS011;48241;48.824;10.102;2023-07-29T11:52:34;1.42;;;0.60;;
62258;SDS011;48241;48.824;10.102;2023-07-29T11:55:04;0.75;;;0.57;;
62258;SDS011;48241;48.824;10.102;2023-07-29T11:57:31;0.60;;;0.40;;
62258;SDS011;48241;48.824;10.102;2023-07-29T11:59:59;0.65;;;0.52;;
62258;SDS011;48241;48.824;10.102;2023-07-29T12:02:31;0.70;;;0.50;;
62258;SDS011;48241;48.824;10.102;2023-07-29T12:04:59;0.90;;;0.60;;
62258;SDS011;48241;48.824;10.102;2023-07-29T12:07:25;0.90;;;0.75;;
62258;SDS011;48241;48.824;10.102;2023-07-29T12:09:51;0.70;;;0.70;;
62258;SDS011;48241;48.824;10.102;2023-07-29T12:12:17;1.38;;;0.73;;
62258;SDS011;48241;48.824;10.102;2023-07-29T12:14:44;1.60;;;0.80;;
62258;SDS011;48241;48.824;10.102;2023-07-29T12:17:12;2.05;;;1.00;;
62258;SDS011;48241;48.824;10.102;2023-07-29T12:19:38;0.93;;;0.70;;
62258;SDS011;48241;48.824;10.102;2023-07-29T12:22:06;2.10;;;0.90;;
62258;SDS011;48241;48.824;10.102;2023-07-29T12:24:33;1.60;;;1.00;;
62258;SDS011;48241;48.824;10.102;2023-07-29T12:27:00;1.50;;;0.82;;
62258;SDS011;48241;48.824;10.102;2023-07-29T12:29:26;2.20;;;1.00;;
62258;SDS011;48241;48.824;10.102;2023-07-29T12:32:02;1.50;;;1.10;;
62258;SDS011;48241;48.824;10.102;2023-07-29T12:34:29;1.17;;;1.00;;
62258;SDS011;48241;48.824;10.102;2023-07-29T12:36:56;1.50;;;0.88;;
62258;SDS011;48241;48.824;10.102;2023-07-29T12:41:52;2.22;;;0.88;;
62258;SDS011;48241;48.824;10.102;2023-07-29T12:44:19;1.38;;;1.00;;
62258;SDS011;48241;48.824;10.102;2023-07-29T12:46:45;1.45;;;1.13;;
62258;SDS011;48241;48.824;10.102;2023-07-29T12:49:11;1.48;;;1.00;;
62258;SDS011;48241;48.824;10.102;2023-07-29T12:51:37;1.35;;;1.00;;
62258;SDS011;48241;48.824;10.102;2023-07-29T12:54:03;1.20;;;0.95;;
62258;SDS011;48241;48.824;10.102;2023-07-29T12:56:29;1.00;;;0.90;;
62258;SDS011;48241;48.824;10.102;2023-07-29T12:58:56;1.98;;;1.02;;
62258;SDS011;48241;48.824;10.102;2023-07-29T13:01:23;2.38;;;1.02;;
62258;SDS011;48241;48.824;10.102;2023-07-29T13:03:49;1.45;;;1.08;;
62258;SDS011;48241;48.824;10.102;2023-07-29T13:06:14;1.00;;;0.88;;
62258;SDS011;48241;48.824;10.102;2023-07-29T13:08:40;1.33;;;1.13;;
62258;SDS011;48241;48.824;10.102;2023-07-29T13:11:06;2.08;;;1.40;;
62258;SDS011;48241;48.824;10.102;2023-07-29T13:13:32;1.48;;;1.27;;
62258;SDS011;48241;48.824;10.102;2023-07-29T13:15:58;1.40;;;1.30;;
62258;SDS011;48241;48.824;10.102;2023-07-29T13:18:24;1.20;;;1.10;;
62258;SDS011;48241;48.824;10.102;2023-07-29T13:20:49;2.22;;;1.40;;
62258;SDS011;48241;48.824;10.102;2023-07-29T13:23:15;2.08;;;1.35;;
62258;SDS011;48241;48.824;10.102;2023-07-29T13:25:41;1.92;;;1.20;;
62258;SDS011;48241;48.824;10.102;2023-07-29T13:28:07;2.88;;;1.30;;
62258;SDS011;48241;48.824;10.102;2023-07-29T13:30:34;1.40;;;1.30;;
62258;SDS011;48241;48.824;10.102;2023-07-29T13:33:00;1.33;;;1.23;;
62258;SDS011;48241;48.824;10.102;2023-07-29T13:35:25;1.20;;;1.10;;
62258;SDS011;48241;48.824;10.102;2023-07-29T13:37:51;1.52;;;1.30;;
62258;SDS011;48241;48.824;10.102;2023-07-29T13:40:17;3.28;;;1.50;;
62258;SDS011;48241;48.824;10.102;2023-07-29T13:42:42;2.22;;;1.15;;
62258;SDS011;48241;48.824;10.102;2023-07-29T13:45:08;2.50;;;1.40;;
62258;SDS011;48241;48.824;10.102;2023-07-29T13:47:34;1.50;;;1.20;;
62258;SDS011;48241;48.824;10.102;2023-07-29T13:50:00;1.70;;;1.40;;
62258;SDS011;48241;48.824;10.102;2023-07-29T13:52:26;3.90;;;1.70;;
62258;SDS011;48241;48.824;10.102;2023-07-29T13:54:51;1.98;;;1.33;;
62258;SDS011;48241;48.824;10.102;2023-07-29T13:57:17;1.80;;;1.50;;
62258;SDS011;48241;48.824;10.102;2023-07-29T13:59:42;1.58;;;1.38;;
62258;SDS011;48241;48.824;10.102;2023-07-29T14:02:08;2.63;;;1.30;;
62258;SDS011;48241;48.824;10.102;2023-07-29T14:04:34;1.85;;;1.40;;
62258;SDS011;48241;48.824;10.102;2023-07-29T14:06:59;5.05;;;1.65;;
62258;SDS011;48241;48.824;10.102;2023-07-29T14:09:25;1.48;;;1.30;;
62258;SDS011;48241;48.824;10.102;2023-07-29T14:11:51;1.55;;;1.45;;
62258;SDS011;48241;48.824;10.102;2023-07-29T14:14:18;2.03;;;1.30;;
62258;SDS011;48241;48.824;10.102;2023-07-29T14:16:44;3.10;;;1.30;;
62258;SDS011;48241;48.824;10.102;2023-07-29T14:19:10;2.30;;;1.60;;
62258;SDS011;48241;48.824;10.102;2023-07-29T14:21:35;1.90;;;1.40;;
62258;SDS011;48241;48.824;10.102;2023-07-29T14:24:01;1.40;;;1.30;;
62258;SDS011;48241;48.824;10.102;2023-07-29T14:26:26;2.95;;;1.58;;
62258;SDS011;48241;48.824;10.102;2023-07-29T14:28:52;2.00;;;1.38;;
62258;SDS011;48241;48.824;10.102;2023-07-29T14:31:17;3.67;;;1.40;;
62258;SDS011;48241;48.824;10.102;2023-07-29T14:33:43;2.92;;;1.60;;
62258;SDS011;48241;48.824;10.102;2023-07-29T14:36:09;1.40;;;1.30;;
62258;SDS011;48241;48.824;10.102;2023-07-29T14:38:35;2.85;;;1.58;;
62258;SDS011;48241;48.824;10.102;2023-07-29T14:41:01;1.52;;;1.42;;
62258;SDS011;48241;48.824;10.102;2023-07-29T14:43:28;2.72;;;1.33;;
62258;SDS011;48241;48.824;10.102;2023-07-29T14:45:53;2.90;;;1.20;;
62258;SDS011;48241;48.824;10.102;2023-07-29T14:48:19;3.35;;;1.40;;
62258;SDS011;48241;48.824;10.102;2023-07-29T14:50:44;2.55;;;1.40;;
62258;SDS011;48241;48.824;10.102;2023-07-29T14:53:10;1.42;;;1.25;;